Time;durP1;ratioP1;P1;durP2;ratioP2;P2;SDS_P1;SDS_P2;PMS_P1;PMS_P2;Temp;Humidity;BMP_temperature;BMP_pressure;BME280_temperature;BME280_humidity;BME280_pressure;Samples;Min_cycle;Max_cycle;Signal;HPM_P1;HPM_P2
2022/12/12 00:01:23;;;;;;;40.43;24.80;;;;;;;-1.91;100.00;96015.50;5068438;28;20189;-72
2022/12/12 00:03:49;;;;;;;38.13;24.23;;;;;;;-1.90;100.00;96017.09;5043704;28;20618;-71
2022/12/12 00:06:14;;;;;;;41.37;27.00;;;;;;;-1.78;100.00;96016.53;5057546;28;20230;-71
2022/12/12 00:08:40;;;;;;;35.73;22.93;;;;;;;-1.76;100.00;96022.31;5055632;28;20264;-71
2022/12/12 00:11:05;;;;;;;37.13;22.80;;;;;;;-1.87;100.00;96016.75;5054479;28;20320;-76
2022/12/12 00:13:32;;;;;;;33.23;21.43;;;;;;;-1.90;100.00;96012.75;5054319;28;20639;-71
2022/12/12 00:15:57;;;;;;;35.47;22.70;;;;;;;-2.02;100.00;96016.66;5057586;28;20197;-71
2022/12/12 00:18:23;;;;;;;38.60;22.17;;;;;;;-1.98;100.00;96005.09;5053864;28;20186;-71
2022/12/12 00:20:53;;;;;;;34.23;21.87;;;;;;;-2.16;100.00;96012.22;5054188;28;20178;-71
2022/12/12 00:23:18;;;;;;;32.57;22.80;;;;;;;-2.04;100.00;96010.88;5059423;28;20219;-71
2022/12/12 00:25:43;;;;;;;36.13;22.77;;;;;;;-2.00;100.00;96016.47;5065353;28;20170;-71
2022/12/12 00:28:09;;;;;;;33.30;22.07;;;;;;;-2.03;100.00;96012.50;5065705;28;20181;-72
2022/12/12 00:30:34;;;;;;;36.27;22.43;;;;;;;-2.09;100.00;96015.72;5073427;28;20286;-71
2022/12/12 00:32:59;;;;;;;34.60;22.23;;;;;;;-2.15;100.00;96022.31;5073060;28;20196;-72
2022/12/12 00:35:25;;;;;;;33.90;22.03;;;;;;;-2.07;100.00;96020.69;5068375;28;20269;-72
2022/12/12 00:37:50;;;;;;;35.13;23.57;;;;;;;-2.05;100.00;96024.69;5067859;28;20518;-71
2022/12/12 00:40:15;;;;;;;34.77;22.60;;;;;;;-2.04;100.00;96020.34;5054670;28;20186;-71
2022/12/12 00:42:41;;;;;;;38.97;23.03;;;;;;;-2.05;100.00;96019.56;5073901;28;20212;-71
2022/12/12 00:45:07;;;;;;;33.07;20.87;;;;;;;-2.14;100.00;96023.94;5069915;28;20181;-71
2022/12/12 00:47:33;;;;;;;35.97;22.40;;;;;;;-2.16;100.00;96028.41;5067185;28;20221;-71
2022/12/12 00:49:59;;;;;;;34.37;21.33;;;;;;;-1.96;100.00;96017.75;5045674;28;20624;-70
2022/12/12 00:52:24;;;;;;;33.37;21.53;;;;;;;-1.95;100.00;96021.94;5053803;28;20277;-71
2022/12/12 00:54:49;;;;;;;31.50;20.83;;;;;;;-2.13;100.00;96028.09;5053326;28;20708;-71
2022/12/12 00:57:15;;;;;;;33.40;21.30;;;;;;;-2.13;100.00;96019.59;5053844;28;20186;-71
2022/12/12 00:59:40;;;;;;;29.60;20.27;;;;;;;-2.07;100.00;96028.41;5053720;28;20194;-71
2022/12/12 01:02:06;;;;;;;30.63;19.67;;;;;;;-2.05;100.00;96023.88;5053044;28;20315;-72
2022/12/12 01:04:31;;;;;;;33.10;21.57;;;;;;;-1.95;100.00;96015.00;5056816;28;20305;-71
2022/12/12 01:06:56;;;;;;;31.63;20.03;;;;;;;-2.15;100.00;96022.31;5066193;28;20335;-71
2022/12/12 01:09:22;;;;;;;26.73;18.33;;;;;;;-2.24;100.00;96020.78;5063203;28;20213;-71
2022/12/12 01:11:47;;;;;;;26.00;17.10;;;;;;;-2.39;100.00;96019.84;5073076;28;20201;-71
2022/12/12 01:14:12;;;;;;;26.87;17.53;;;;;;;-2.30;100.00;96029.13;5055162;28;20196;-71
2022/12/12 01:16:38;;;;;;;27.63;17.80;;;;;;;-2.26;100.00;96027.81;5068411;28;20178;-71
2022/12/12 01:19:03;;;;;;;24.67;16.30;;;;;;;-2.30;100.00;96026.56;5052653;28;20185;-71
2022/12/12 01:21:29;;;;;;;25.17;17.17;;;;;;;-2.36;100.00;96024.66;5053269;28;20210;-71
2022/12/12 01:23:54;;;;;;;26.13;16.90;;;;;;;-2.31;100.00;96034.41;5068914;28;20204;-70
2022/12/12 01:26:22;;;;;;;25.10;17.23;;;;;;;-2.41;100.00;96024.34;5052476;28;20277;-71
2022/12/12 01:28:48;;;;;;;26.70;17.33;;;;;;;-2.22;100.00;96033.41;5052885;28;20186;-70
2022/12/12 01:31:13;;;;;;;25.40;16.90;;;;;;;-2.27;100.00;96035.69;5035148;28;20661;-72
2022/12/12 01:33:39;;;;;;;21.97;15.00;;;;;;;-2.32;100.00;96036.19;5071917;28;20656;-71
2022/12/12 01:36:05;;;;;;;22.50;15.97;;;;;;;-2.32;100.00;96030.25;5072580;28;20185;-71
2022/12/12 01:38:31;;;;;;;22.50;15.53;;;;;;;-2.32;100.00;96033.63;5053372;28;20186;-71
2022/12/12 01:40:56;;;;;;;19.67;14.73;;;;;;;-2.22;100.00;96028.28;5043805;28;20200;-71
2022/12/12 01:43:24;;;;;;;23.00;15.50;;;;;;;-2.22;100.00;96029.09;5072926;28;20556;-70
2022/12/12 01:46:01;;;;;;;23.73;16.33;;;;;;;-2.35;100.00;96036.53;5072390;28;20188;-72
2022/12/12 01:48:40;;;;;;;25.13;17.40;;;;;;;-2.35;100.00;96030.59;5063060;28;20225;-71
2022/12/12 01:51:09;;;;;;;21.27;15.40;;;;;;;-2.36;100.00;96028.97;5035053;28;20704;-71
2022/12/12 01:53:36;;;;;;;23.63;17.20;;;;;;;-2.45;100.00;96030.75;5052888;28;20186;-71
2022/12/12 01:56:06;;;;;;;24.07;16.77;;;;;;;-2.54;100.00;96029.19;5034454;28;20185;-71
2022/12/12 01:58:33;;;;;;;21.93;15.33;;;;;;;-2.64;100.00;96029.38;5060878;28;20177;-71
2022/12/12 02:00:58;;;;;;;23.97;16.87;;;;;;;-2.80;100.00;96023.47;5072170;28;20200;-71
2022/12/12 02:03:24;;;;;;;24.63;16.43;;;;;;;-2.79;100.00;96032.78;5072693;28;20209;-70
2022/12/12 02:05:58;;;;;;;24.37;16.63;;;;;;;-2.78;100.00;96027.47;5054657;28;20532;-71
2022/12/12 02:08:24;;;;;;;26.27;16.53;;;;;;;-2.70;100.00;96027.47;5057520;28;20180;-71
2022/12/12 02:10:50;;;;;;;25.73;18.00;;;;;;;-2.43;100.00;96038.28;5066439;28;20532;-72
2022/12/12 02:13:19;;;;;;;26.27;16.73;;;;;;;-2.60;100.00;96033.19;5069666;28;20610;-71
2022/12/12 02:16:06;;;;;;;26.60;17.07;;;;;;;-2.73;100.00;96034.69;5052651;28;20185;-71
2022/12/12 02:18:44;;;;;;;23.60;15.63;;;;;;;-2.93;100.00;96034.22;5069683;28;20173;-74
2022/12/12 02:21:29;;;;;;;27.30;15.83;;;;;;;-3.00;100.00;96044.31;5071415;28;20573;-73
2022/12/12 02:24:15;;;;;;;23.13;16.40;;;;;;;-2.85;100.00;96038.53;5066593;28;20209;-74
2022/12/12 02:27:05;;;;;;;28.90;16.13;;;;;;;-3.01;100.00;96042.69;5066719;28;20220;-71
2022/12/12 02:29:47;;;;;;;23.83;16.23;;;;;;;-2.89;100.00;96037.25;5072090;28;20174;-71
2022/12/12 02:32:24;;;;;;;25.33;16.67;;;;;;;-2.99;100.00;96032.28;5062462;28;20185;-71
2022/12/12 02:35:14;;;;;;;25.63;16.93;;;;;;;-3.13;100.00;96035.50;5070756;28;20513;-71
2022/12/12 02:38:17;;;;;;;26.23;16.37;;;;;;;-3.29;100.00;96035.50;5054328;28;20173;-72
2022/12/12 02:40:55;;;;;;;27.90;16.83;;;;;;;-3.29;100.00;96033.75;5061480;28;20189;-71
2022/12/12 02:43:29;;;;;;;27.67;17.53;;;;;;;-3.31;100.00;96030.53;5067774;28;20201;-71
2022/12/12 02:46:02;;;;;;;25.30;17.67;;;;;;;-3.44;100.00;96040.44;5071570;28;20176;-72
2022/12/12 02:48:55;;;;;;;27.67;17.97;;;;;;;-3.41;100.00;96040.13;5071705;28;20225;-71
2022/12/12 02:51:22;;;;;;;33.10;20.20;;;;;;;-3.37;100.00;96046.53;5070192;28;20581;-71
2022/12/12 02:53:48;;;;;;;30.23;18.67;;;;;;;-3.44;100.00;96051.50;5070339;28;20197;-71
2022/12/12 02:56:43;;;;;;;26.93;17.83;;;;;;;-3.47;100.00;96046.69;5071856;28;20189;-71
2022/12/12 02:59:14;;;;;;;31.33;19.73;;;;;;;-3.52;100.00;96054.06;5055338;28;20198;-71
2022/12/12 03:01:58;;;;;;;29.37;19.80;;;;;;;-3.59;100.00;96052.28;5052662;28;20166;-71
2022/12/12 03:07:50;;;;;;;29.60;19.63;;;;;;;-3.59;100.00;96037.72;5051721;28;20692;-72
2022/12/12 03:10:33;;;;;;;34.70;21.70;;;;;;;-3.62;100.00;96040.56;5064161;28;20193;-71
2022/12/12 03:13:08;;;;;;;33.93;21.67;;;;;;;-3.59;100.00;96042.84;5059331;28;20197;-71
2022/12/12 03:16:05;;;;;;;31.30;21.87;;;;;;;-3.63;100.00;96035.63;5074281;28;20183;-71
2022/12/12 03:18:49;;;;;;;39.13;23.27;;;;;;;-3.63;100.00;96044.13;5059955;28;20606;-72
2022/12/12 03:21:22;;;;;;;37.23;22.63;;;;;;;-3.60;100.00;96056.59;5055238;28;20649;-71
2022/12/12 03:23:53;;;;;;;38.03;23.07;;;;;;;-3.58;100.00;96041.88;5073261;28;20228;-72
2022/12/12 03:26:46;;;;;;;39.00;23.87;;;;;;;-3.70;100.00;96043.13;5075246;28;20186;-71
2022/12/12 03:29:51;;;;;;;35.63;22.40;;;;;;;-3.69;100.00;96044.75;5074995;28;20210;-72
2022/12/12 03:32:23;;;;;;;38.40;23.50;;;;;;;-3.72;100.00;96051.91;5021790;28;20546;-72
2022/12/12 03:34:55;;;;;;;40.77;25.33;;;;;;;-3.69;100.00;96043.94;5055375;28;20178;-72
2022/12/12 03:37:32;;;;;;;38.73;24.13;;;;;;;-3.70;100.00;96048.25;5055050;28;20166;-73
2022/12/12 03:40:06;;;;;;;43.67;25.27;;;;;;;-3.75;100.00;96045.34;5059080;28;20738;-72
2022/12/12 03:42:58;;;;;;;40.87;23.70;;;;;;;-3.65;100.00;96037.53;5057044;28;20209;-72
2022/12/12 03:45:31;;;;;;;44.37;26.10;;;;;;;-3.79;100.00;96041.53;5055007;28;20193;-72
2022/12/12 03:48:03;;;;;;;43.33;25.57;;;;;;;-3.83;100.00;96038.44;5055008;28;20223;-72
2022/12/12 03:50:46;;;;;;;39.33;24.07;;;;;;;-3.74;100.00;96044.41;5055350;28;20181;-71
2022/12/12 03:53:22;;;;;;;47.67;25.70;;;;;;;-3.79;100.00;96049.19;5054603;28;20174;-72
2022/12/12 03:56:00;;;;;;;40.07;25.27;;;;;;;-3.71;100.00;96051.75;5054902;28;20209;-71
2022/12/12 03:58:31;;;;;;;42.17;26.40;;;;;;;-3.77;100.00;96045.50;5040921;28;20208;-71
2022/12/12 04:00:59;;;;;;;42.27;26.67;;;;;;;-3.73;100.00;96052.91;5065915;28;20189;-72
2022/12/12 04:04:07;;;;;;;43.77;25.43;;;;;;;-3.85;100.00;96054.94;5054734;28;20263;-73
2022/12/12 04:06:36;;;;;;;43.60;26.50;;;;;;;-3.85;100.00;96058.31;5074281;28;20161;-72
2022/12/12 04:15:14;;;;;;;41.60;25.90;;;;;;;-3.73;100.00;96065.69;5054356;28;20315;-72
2022/12/12 04:18:06;;;;;;;45.83;26.23;;;;;;;-3.58;100.00;96061.56;5058318;28;20503;-72
2022/12/12 04:24:11;;;;;;;45.17;26.07;;;;;;;-3.55;100.00;96071.47;5053575;28;20685;-72
2022/12/12 04:26:51;;;;;;;44.53;26.10;;;;;;;-3.63;100.00;96067.16;5055374;28;20174;-71
2022/12/12 04:29:23;;;;;;;48.37;27.43;;;;;;;-3.67;100.00;96076.09;5073755;28;20178;-71
2022/12/12 04:32:09;;;;;;;44.73;27.07;;;;;;;-3.67;100.00;96070.97;5073867;28;20300;-72
2022/12/12 04:34:41;;;;;;;44.40;26.20;;;;;;;-3.57;100.00;96069.09;5055558;28;20617;-72
2022/12/12 04:37:10;;;;;;;44.00;26.57;;;;;;;-3.56;100.00;96072.44;5072156;28;20174;-71
2022/12/12 04:39:38;;;;;;;45.97;26.70;;;;;;;-3.61;100.00;96061.84;5073160;28;20284;-71
2022/12/12 04:42:06;;;;;;;45.33;26.23;;;;;;;-3.72;100.00;96072.38;5073581;28;20181;-71
2022/12/12 04:44:34;;;;;;;44.40;27.33;;;;;;;-3.64;100.00;96080.91;5057464;28;20190;-73
2022/12/12 04:47:01;;;;;;;41.27;27.20;;;;;;;-3.69;100.00;96080.56;5053664;28;20631;-72
2022/12/12 04:49:29;;;;;;;45.43;27.47;;;;;;;-3.63;100.00;96082.53;5071846;28;20670;-72
2022/12/12 04:52:01;;;;;;;41.27;26.03;;;;;;;-3.52;100.00;96094.22;5073552;28;20624;-72
2022/12/12 04:54:51;;;;;;;46.43;28.10;;;;;;;-3.53;100.00;96087.50;5057045;28;20170;-71
2022/12/12 04:57:26;;;;;;;40.17;25.17;;;;;;;-3.48;100.00;96085.25;5053931;28;20555;-72
2022/12/12 04:59:52;;;;;;;40.23;25.70;;;;;;;-3.41;100.00;96078.56;5053836;28;20181;-71
2022/12/12 05:02:24;;;;;;;40.80;25.83;;;;;;;-3.46;100.00;96085.91;5035782;28;20189;-71
2022/12/12 05:04:57;;;;;;;40.53;24.23;;;;;;;-3.50;100.00;96084.59;5053391;28;20525;-71
2022/12/12 05:07:34;;;;;;;38.67;25.00;;;;;;;-3.51;100.00;96083.81;5054222;28;20227;-72
2022/12/12 05:09:59;;;;;;;46.20;27.27;;;;;;;-3.45;100.00;96082.38;5053265;28;20273;-72
2022/12/12 05:12:25;;;;;;;39.47;25.83;;;;;;;-3.56;100.00;96091.16;5053153;28;20286;-72
2022/12/12 05:14:51;;;;;;;43.77;25.37;;;;;;;-3.61;100.00;96093.38;5019090;28;20208;-72
2022/12/12 05:17:24;;;;;;;38.80;24.17;;;;;;;-3.66;100.00;96095.63;5062625;28;20181;-72
2022/12/12 05:19:49;;;;;;;39.90;24.83;;;;;;;-3.68;100.00;96092.44;5040337;28;20236;-76
2022/12/12 05:22:14;;;;;;;41.07;23.83;;;;;;;-3.58;100.00;96089.72;5052265;28;20186;-72
2022/12/12 05:24:40;;;;;;;40.47;23.90;;;;;;;-3.66;100.00;96094.81;5035461;28;20205;-72
2022/12/12 05:27:05;;;;;;;34.33;22.23;;;;;;;-3.68;100.00;96101.88;5042955;28;20272;-72
2022/12/12 05:29:31;;;;;;;35.13;23.60;;;;;;;-3.68;100.00;96099.31;5072381;28;20266;-72
2022/12/12 05:31:56;;;;;;;39.07;25.03;;;;;;;-3.78;100.00;96091.72;5071985;28;20205;-72
2022/12/12 05:34:22;;;;;;;36.50;22.23;;;;;;;-3.74;100.00;96098.16;5072864;28;20204;-72
2022/12/12 05:36:47;;;;;;;38.73;24.97;;;;;;;-3.73;100.00;96097.19;5053380;28;20213;-72
2022/12/12 05:39:12;;;;;;;36.13;24.23;;;;;;;-3.58;100.00;96105.09;5072034;28;20753;-72
2022/12/12 05:41:38;;;;;;;37.93;25.03;;;;;;;-3.63;100.00;96099.63;5054728;28;20182;-72
2022/12/12 05:44:03;;;;;;;36.37;24.17;;;;;;;-3.73;100.00;96097.19;5052642;28;20202;-72
2022/12/12 05:46:28;;;;;;;38.50;23.93;;;;;;;-3.50;100.00;96097.41;5059928;28;20216;-72
2022/12/12 05:48:54;;;;;;;38.03;23.47;;;;;;;-3.71;100.00;96099.59;5072369;28;20276;-72
2022/12/12 05:51:20;;;;;;;41.73;24.83;;;;;;;-3.78;100.00;96104.53;5072645;28;20217;-72
2022/12/12 05:53:46;;;;;;;39.23;22.90;;;;;;;-3.74;100.00;96103.28;5072317;28;20205;-71
2022/12/12 05:56:11;;;;;;;39.87;25.00;;;;;;;-3.73;100.00;96099.75;5070791;28;20272;-72
2022/12/12 05:58:40;;;;;;;38.67;24.37;;;;;;;-3.70;100.00;96096.09;5072374;28;20701;-72
2022/12/12 06:01:06;;;;;;;40.97;24.73;;;;;;;-3.61;100.00;96105.38;5054216;28;20190;-75
2022/12/12 06:03:32;;;;;;;37.63;23.90;;;;;;;-3.73;100.00;96101.53;5052545;28;20209;-72
2022/12/12 06:05:58;;;;;;;37.83;23.27;;;;;;;-3.72;100.00;96101.34;5058906;28;20272;-77
2022/12/12 06:08:23;;;;;;;35.97;23.03;;;;;;;-3.65;100.00;96112.59;5056740;28;20269;-72
2022/12/12 06:10:48;;;;;;;36.23;22.93;;;;;;;-3.67;100.00;96114.50;5052527;28;20193;-72
2022/12/12 06:13:14;;;;;;;35.60;23.10;;;;;;;-3.66;100.00;96113.53;5052417;28;20708;-72
2022/12/12 06:15:39;;;;;;;35.23;22.77;;;;;;;-3.83;100.00;96117.78;5054807;28;20658;-72
2022/12/12 06:18:05;;;;;;;39.93;24.30;;;;;;;-3.81;100.00;96115.09;5069510;28;20520;-72
2022/12/12 06:20:31;;;;;;;41.37;24.73;;;;;;;-3.73;100.00;96122.78;5072224;28;20177;-72
2022/12/12 06:22:56;;;;;;;36.87;23.70;;;;;;;-3.68;100.00;96119.78;5071497;28;20205;-72
2022/12/12 06:25:22;;;;;;;40.20;24.67;;;;;;;-3.87;100.00;96120.81;5068306;28;20196;-72
2022/12/12 06:27:47;;;;;;;37.47;24.13;;;;;;;-3.57;100.00;96127.19;5052363;28;20181;-72
2022/12/12 06:30:13;;;;;;;35.40;23.77;;;;;;;-3.68;100.00;96128.28;5052506;28;20630;-72
2022/12/12 06:32:38;;;;;;;37.13;23.87;;;;;;;-3.89;100.00;96132.97;5052087;28;20666;-72
2022/12/12 06:35:04;;;;;;;38.87;23.90;;;;;;;-3.84;100.00;96128.19;5060315;28;20182;-74
2022/12/12 06:37:29;;;;;;;42.53;24.77;;;;;;;-3.82;100.00;96129.66;5059611;28;20190;-72
2022/12/12 06:39:54;;;;;;;38.47;24.90;;;;;;;-3.60;100.00;96130.84;5056902;28;20674;-72
2022/12/12 06:42:20;;;;;;;37.40;23.33;;;;;;;-3.68;100.00;96132.59;5057453;28;20185;-72
2022/12/12 06:44:45;;;;;;;39.20;24.93;;;;;;;-3.54;100.00;96132.78;5070399;28;20219;-72
2022/12/12 06:47:10;;;;;;;36.77;24.43;;;;;;;-3.49;100.00;96132.31;5075026;28;20229;-72
2022/12/12 06:49:36;;;;;;;38.50;24.40;;;;;;;-3.67;100.00;96131.59;5063557;28;20200;-75
2022/12/12 06:52:01;;;;;;;39.33;24.77;;;;;;;-3.57;100.00;96138.22;5056019;28;20240;-72
2022/12/12 06:54:27;;;;;;;41.27;24.60;;;;;;;-3.63;100.00;96133.72;5063464;28;20181;-72
2022/12/12 06:56:52;;;;;;;37.17;24.43;;;;;;;-3.63;100.00;96141.41;5039164;28;20186;-73
2022/12/12 06:59:17;;;;;;;40.70;24.60;;;;;;;-3.54;100.00;96143.03;5056071;28;20229;-72
2022/12/12 07:01:43;;;;;;;43.60;25.73;;;;;;;-3.36;100.00;96146.28;5055710;28;20188;-75
2022/12/12 07:04:11;;;;;;;38.77;24.77;;;;;;;-3.47;100.00;96146.59;5067536;28;20216;-73
2022/12/12 07:06:36;;;;;;;36.70;24.33;;;;;;;-3.57;100.00;96148.47;5059252;28;20268;-72
2022/12/12 07:09:02;;;;;;;36.07;24.73;;;;;;;-3.73;100.00;96145.81;5037861;28;20268;-72
2022/12/12 07:11:27;;;;;;;37.17;23.77;;;;;;;-3.65;100.00;96150.19;5057171;28;20212;-73
2022/12/12 07:13:55;;;;;;;39.73;24.03;;;;;;;-3.68;100.00;96151.31;5065698;28;20220;-73
2022/12/12 07:16:21;;;;;;;36.90;25.03;;;;;;;-3.64;100.00;96152.59;5061744;28;20182;-72
2022/12/12 07:18:47;;;;;;;41.73;25.83;;;;;;;-3.44;100.00;96156.50;5054791;28;20186;-73
2022/12/12 07:21:16;;;;;;;39.53;24.87;;;;;;;-3.37;100.00;96152.38;5049805;28;20197;-74
2022/12/12 07:23:41;;;;;;;41.40;26.23;;;;;;;-3.54;100.00;96155.03;5058580;28;20288;-74
2022/12/12 07:26:13;;;;;;;45.23;24.63;;;;;;;-3.43;100.00;96152.19;5063668;28;20189;-75
2022/12/12 07:28:38;;;;;;;44.03;31.47;;;;;;;-3.46;100.00;96161.00;5063735;28;20180;-75
2022/12/12 07:31:08;;;;;;;43.37;30.47;;;;;;;-3.39;100.00;96156.03;5056173;28;20276;-74
2022/12/12 07:33:35;;;;;;;45.53;28.57;;;;;;;-3.34;100.00;96165.84;5055889;28;20214;-75
2022/12/12 07:36:00;;;;;;;46.93;26.20;;;;;;;-3.34;100.00;96165.84;5037220;28;20202;-76
2022/12/12 07:38:26;;;;;;;39.27;25.77;;;;;;;-3.31;100.00;96174.00;5055056;28;20693;-80
2022/12/12 07:40:52;;;;;;;38.70;28.50;;;;;;;-3.41;100.00;96174.13;5039367;28;20243;-78
2022/12/12 07:43:17;;;;;;;44.87;28.73;;;;;;;-3.47;100.00;96173.94;5056120;28;20650;-73
2022/12/12 07:45:44;;;;;;;37.67;28.63;;;;;;;-3.54;100.00;96181.44;5062725;28;20629;-73
2022/12/12 07:48:09;;;;;;;35.97;24.37;;;;;;;-3.33;100.00;96180.22;5074130;28;20264;-75
2022/12/12 07:50:37;;;;;;;40.77;24.30;;;;;;;-3.38;100.00;96176.38;5074945;28;20658;-75
2022/12/12 07:53:02;;;;;;;38.87;26.50;;;;;;;-3.41;100.00;96181.81;5056345;28;20885;-76
2022/12/12 07:55:28;;;;;;;40.97;25.67;;;;;;;-3.44;100.00;96183.88;5041273;28;20216;-75
2022/12/12 07:57:53;;;;;;;38.57;26.37;;;;;;;-3.19;100.00;96177.88;5074391;28;20603;-76
2022/12/12 08:00:19;;;;;;;34.77;23.20;;;;;;;-3.17;100.00;96173.38;5074654;28;20282;-75
2022/12/12 08:02:44;;;;;;;39.13;24.37;;;;;;;-3.34;100.00;96178.63;5066213;28;20202;-76
2022/12/12 08:05:10;;;;;;;36.80;23.27;;;;;;;-3.36;100.00;96173.66;5039144;28;20198;-76
2022/12/12 08:07:35;;;;;;;37.73;23.13;;;;;;;-3.27;100.00;96172.72;5069888;28;20196;-77
2022/12/12 08:10:01;;;;;;;35.43;23.37;;;;;;;-3.23;100.00;96181.69;5065697;28;20205;-76
2022/12/12 08:12:30;;;;;;;37.80;23.73;;;;;;;-3.23;100.00;96189.38;5056504;28;20178;-76
2022/12/12 08:14:56;;;;;;;38.60;23.77;;;;;;;-3.20;100.00;96193.41;5040073;28;20193;-75
2022/12/12 08:17:21;;;;;;;36.77;23.90;;;;;;;-3.18;100.00;96197.44;5073476;28;20181;-75
2022/12/12 08:19:47;;;;;;;36.40;21.97;;;;;;;-3.12;100.00;96196.00;5074367;28;20173;-74
2022/12/12 08:22:12;;;;;;;34.30;21.70;;;;;;;-3.05;100.00;96190.06;5073624;28;20181;-75
2022/12/12 08:24:38;;;;;;;34.67;22.23;;;;;;;-3.06;100.00;96195.34;5074093;28;20173;-75
2022/12/12 08:27:03;;;;;;;32.93;22.27;;;;;;;-2.85;100.00;96195.72;5070380;28;20221;-75
2022/12/12 08:29:29;;;;;;;33.90;21.97;;;;;;;-2.96;100.00;96196.03;5054281;28;20185;-75
2022/12/12 08:31:54;;;;;;;38.17;24.73;;;;;;;-3.11;100.00;96195.00;5054066;28;20631;-75
2022/12/12 08:34:20;;;;;;;35.03;23.40;;;;;;;-2.99;100.00;96194.56;5065887;28;20269;-74
2022/12/12 08:36:46;;;;;;;39.70;23.23;;;;;;;-2.96;100.00;96199.41;5053905;28;20244;-75
2022/12/12 08:39:14;;;;;;;35.67;23.13;;;;;;;-2.65;100.00;96196.22;5056191;28;20198;-75
2022/12/12 08:41:42;;;;;;;35.67;22.37;;;;;;;-2.76;100.00;96204.22;5036141;28;20181;-75
2022/12/12 08:44:10;;;;;;;35.37;23.27;;;;;;;-2.71;100.00;96210.47;5053791;28;20205;-75
2022/12/12 08:46:36;;;;;;;35.47;22.47;;;;;;;-2.69;100.00;96206.00;5063944;28;20534;-75
2022/12/12 08:49:02;;;;;;;34.47;23.30;;;;;;;-2.67;100.00;96209.19;5071695;28;20623;-76
2022/12/12 08:51:27;;;;;;;34.43;22.53;;;;;;;-2.49;100.00;96213.38;5061352;28;20178;-75
2022/12/12 08:53:53;;;;;;;36.70;21.60;;;;;;;-2.58;100.00;96221.09;5062101;28;20186;-75
2022/12/12 08:56:20;;;;;;;35.83;22.50;;;;;;;-2.41;100.00;96215.97;5073521;28;20649;-76
2022/12/12 08:58:46;;;;;;;34.60;23.17;;;;;;;-2.39;100.00;96217.38;5073880;28;20593;-75
2022/12/12 09:01:14;;;;;;;35.87;21.87;;;;;;;-2.78;100.00;96227.44;5073389;28;20195;-75
2022/12/12 09:03:39;;;;;;;32.67;22.63;;;;;;;-2.73;100.00;96224.44;5073254;28;20201;-76
2022/12/12 09:06:06;;;;;;;34.70;21.73;;;;;;;-2.76;100.00;96222.16;5072312;28;20185;-75
2022/12/12 09:08:32;;;;;;;29.63;20.00;;;;;;;-2.54;100.00;96219.00;5073515;28;20170;-74
2022/12/12 09:10:58;;;;;;;33.60;21.60;;;;;;;-2.45;100.00;96220.59;5073755;28;20622;-73
2022/12/12 09:13:24;;;;;;;30.60;21.23;;;;;;;-2.50;100.00;96222.84;5073338;28;20184;-74
2022/12/12 09:15:50;;;;;;;30.60;22.03;;;;;;;-2.30;100.00;96225.91;5073498;28;20181;-73
2022/12/12 09:18:15;;;;;;;28.67;21.23;;;;;;;-2.41;100.00;96227.03;5072744;28;20190;-75
2022/12/12 09:20:41;;;;;;;31.20;21.07;;;;;;;-2.40;100.00;96231.19;5072634;28;20170;-75
2022/12/12 09:23:08;;;;;;;29.10;21.10;;;;;;;-2.24;100.00;96236.34;5072207;28;20231;-73
2022/12/12 09:25:34;;;;;;;32.57;20.63;;;;;;;-2.27;100.00;96239.22;5072748;28;20252;-73
2022/12/12 09:27:59;;;;;;;31.30;20.70;;;;;;;-2.21;100.00;96235.19;5061770;28;20273;-73
2022/12/12 09:30:25;;;;;;;30.33;21.43;;;;;;;-2.12;100.00;96241.94;5052491;28;20186;-73
2022/12/12 09:32:50;;;;;;;31.87;21.80;;;;;;;-2.09;100.00;96244.19;5056432;28;20647;-74
2022/12/12 09:35:16;;;;;;;28.17;20.47;;;;;;;-1.90;100.00;96241.28;5061206;28;20185;-73
2022/12/12 09:37:41;;;;;;;29.70;19.27;;;;;;;-1.85;100.00;96246.72;5072520;28;20269;-72
2022/12/12 09:40:09;;;;;;;27.67;19.10;;;;;;;-1.82;100.00;96243.03;5071318;28;20580;-73
2022/12/12 09:42:38;;;;;;;27.07;18.90;;;;;;;-1.78;100.00;96245.09;5072903;28;20200;-73
2022/12/12 09:45:06;;;;;;;29.90;20.37;;;;;;;-1.73;100.00;96236.94;5072416;28;20173;-73
2022/12/12 09:47:45;;;;;;;26.77;19.20;;;;;;;-1.70;100.00;96239.97;5072908;28;20282;-73
2022/12/12 09:50:21;;;;;;;26.73;18.13;;;;;;;-1.76;100.00;96239.81;5061914;28;20189;-73
2022/12/12 09:52:47;;;;;;;30.17;19.30;;;;;;;-1.36;100.00;96241.47;5069815;28;20177;-73
2022/12/12 09:55:45;;;;;;;27.50;19.90;;;;;;;-1.46;100.00;96235.72;5072959;28;20233;-73
2022/12/12 09:58:22;;;;;;;28.33;18.87;;;;;;;-1.56;100.00;96227.41;5073172;28;20288;-74
2022/12/12 10:01:15;;;;;;;30.13;19.73;;;;;;;-1.30;100.00;96231.34;5072634;28;20702;-73
2022/12/12 10:04:07;;;;;;;30.73;21.90;;;;;;;-0.98;99.90;96230.38;5072948;28;20189;-73
2022/12/12 10:06:53;;;;;;;33.87;20.63;;;;;;;-0.98;99.21;96230.38;5071071;28;20184;-73
2022/12/12 10:10:03;;;;;;;27.80;21.20;;;;;;;-1.23;100.00;96230.66;5072590;28;20864;-73
2022/12/12 10:12:30;;;;;;;29.27;20.83;;;;;;;-1.39;100.00;96231.50;5045712;28;20178;-72
2022/12/12 10:15:00;;;;;;;26.57;19.87;;;;;;;-1.47;100.00;96223.84;5052662;28;20200;-73
2022/12/12 10:17:31;;;;;;;31.10;21.50;;;;;;;-1.36;100.00;96226.06;5056465;28;20189;-73
2022/12/12 10:20:03;;;;;;;31.93;24.97;;;;;;;-1.16;100.00;96227.25;5062578;28;20238;-73
2022/12/12 10:22:36;;;;;;;27.80;19.70;;;;;;;-1.54;100.00;96221.13;5046011;28;20619;-73
2022/12/12 10:25:15;;;;;;;27.53;19.57;;;;;;;-1.47;100.00;96223.84;5065128;28;20169;-73
2022/12/12 10:27:40;;;;;;;27.73;19.60;;;;;;;-1.06;98.47;96229.63;5074181;28;20509;-73
2022/12/12 10:30:24;;;;;;;27.73;19.47;;;;;;;-1.26;99.43;96218.94;5065160;28;20204;-73
2022/12/12 10:33:05;;;;;;;28.93;20.20;;;;;;;-1.24;100.00;96221.34;5076613;28;20204;-71
2022/12/12 10:35:59;;;;;;;28.00;19.87;;;;;;;-1.28;99.19;96219.09;5059212;28;20252;-72
2022/12/12 10:38:45;;;;;;;27.93;21.03;;;;;;;-1.39;100.00;96218.66;5059899;28;20272;-77
2022/12/12 10:41:21;;;;;;;27.37;20.33;;;;;;;-1.51;100.00;96220.81;5055824;28;20578;-72
2022/12/12 10:44:26;;;;;;;26.13;18.10;;;;;;;-1.71;100.00;96217.78;5055896;28;20233;-72
2022/12/12 10:47:06;;;;;;;28.60;18.60;;;;;;;-1.76;100.00;96212.34;5054960;28;20545;-78
2022/12/12 10:49:32;;;;;;;32.67;20.00;;;;;;;-1.67;100.00;96209.78;5055275;28;20185;-73
2022/12/12 10:52:00;;;;;;;26.73;21.57;;;;;;;-1.69;100.00;96212.50;5055931;28;20521;-73
2022/12/12 10:54:27;;;;;;;29.63;19.67;;;;;;;-1.85;100.00;96204.84;5055997;28;20190;-73
2022/12/12 10:57:09;;;;;;;28.57;21.70;;;;;;;-1.78;100.00;96208.34;5055874;28;20178;-73
2022/12/12 10:59:55;;;;;;;31.07;19.57;;;;;;;-1.42;100.00;96201.81;5055947;28;20182;-74
2022/12/12 11:02:37;;;;;;;32.40;23.93;;;;;;;-1.41;100.00;96205.19;5037781;28;20531;-74
2022/12/12 11:05:28;;;;;;;27.13;21.60;;;;;;;-1.44;100.00;96214.03;5055821;28;20178;-75
2022/12/12 11:08:42;;;;;;;28.60;20.17;;;;;;;-1.39;100.00;96210.94;5055796;28;20251;-73
2022/12/12 11:11:19;;;;;;;25.43;19.17;;;;;;;-1.46;100.00;96207.47;4974550;28;20337;-72
2022/12/12 11:13:45;;;;;;;23.37;18.67;;;;;;;-1.40;100.00;96209.38;4958385;28;20199;-76
2022/12/12 11:16:21;;;;;;;25.70;18.23;;;;;;;-1.31;97.55;96203.22;4974419;28;20189;-74
2022/12/12 11:19:23;;;;;;;25.70;16.87;;;;;;;-1.16;94.32;96196.41;4974581;28;20196;-73
2022/12/12 11:21:50;;;;;;;25.67;18.47;;;;;;;-1.17;95.78;96196.59;4942567;28;20194;-73
2022/12/12 11:24:21;;;;;;;23.93;18.20;;;;;;;-1.18;95.60;96194.97;4993618;28;20212;-74
2022/12/12 11:26:54;;;;;;;21.93;18.43;;;;;;;-1.37;97.63;96196.97;4993606;28;20557;-73
2022/12/12 11:29:43;;;;;;;23.90;18.40;;;;;;;-1.17;96.55;96187.06;4957041;28;20209;-74
2022/12/12 11:32:31;;;;;;;26.17;16.97;;;;;;;-1.19;96.94;96191.59;4992591;28;20635;-74
2022/12/12 11:34:59;;;;;;;23.80;16.53;;;;;;;-1.16;96.49;96191.25;4993469;28;20200;-74
2022/12/12 11:37:43;;;;;;;24.73;17.57;;;;;;;-1.02;96.41;96192.31;4993266;28;20194;-74
2022/12/12 11:40:23;;;;;;;26.37;18.63;;;;;;;-0.93;95.03;96194.66;4974157;28;20219;-73